Aérodrome :
LOGIN :

S'inscrire | Disclaimer

   EN    FR    IT 

 










Légende :    VFR   VFR Marginal   IFR   IFR Intensif   IFR Très Intensif
Visi : 
Plafond : 
>= 8 km
>= 3000ft
5 à 8 km
1000 à 3000 ft
1500m à 5 km
500 à 1000 ft
800 à 1500m
200 à 500 ft
< 800m
< 200 ft
Symboles :   Orages  Brouillard  Fortes neiges  Fortes précipitations  Vent > 20 kt
SIGMETs :   Divers  Orages  Givrage  Turbulence  Onde Orograph.  Cendres Volcan.






- Altitude de l'aérodrome : 32 ft
- Code IATA : LKZ


EGUL - RAF Lakenheath

DERNIER METAR :
  • 241656Z AUTO 24024G30KT 9999 FEW055 12/09 A2951 RMK AO2 PK WND 23035/32 SLP997 T01200087 $

METARs EXPIRÉS :
  • 241601Z AUTO 23021G30KT 9999 SCT017 BKN043 12/10 A2952 RMK AO2 SLP000 $
  • 241456Z AUTO 24022G32KT 9999 OVC018 12/10 A2953 RMK AO2 PK WND 20032/1359 SLP003 60002 T01200096 57026 $

TAF AMD TAF EGUL
Valide du 24 à 16h jusqu'au 25 à 19h UTC


241640Z 2416/2519 24015G25KT 9999 SCT015 BKN020 QNH2948INS
TEMPO 2416/2419 25025G35KT 9000 -SHRA BKN015 OVC020 510003
BECMG 2421/2422 26015G25KT 9999 SCT025 QNH2947INS
BECMG 2508/2509 26015G25KT 9999 BKN025 QNH2947INS
TEMPO 2511/2515 26025G35KT 8000 -SHRA BKN020 BKN050 510003
BECMG 2516/2517 26012G18KT 9999 SCT030 QNH2943INS TX12/2416Z TN04/2505Z



MET'MAP, la Météo Aéronautique d'un coup d'oeil ! - Copyright ORBIFLY Décembre 2007 - Disclaimer

ORBIFLY MET'MAP TEAM :

Programmation & Développement : Alexandra Zaïnal
Sur une idée originale de : Baudouin d'Aumeries
Assistance à la programmation : Marc-Olivier Méhu
Soutien technique & logistique : Manuel Goepfert

Contact : metmap@orbifly.com




SOURCES & CREDITS :

   NOAA